Woodbridge, Indiana
Current Conditions -  °F | °C
As of 1:55 PM on Sunday 23 Nov 2014 (Local Time) from K1II Reporting Station
Light Rain Light Rain  
Wind Chill: 11°   Ceiling: 3000
Heat Index: 11°   Visibility: 10mi
Dew Point: 10°   Wind: 6mph
Humidity: 94%   Direction: 130°SE
Pressure: 29.66"   Gusts: NA
Location:  39.244°N, 86.4536°W
Report Text: K1II 231855Z AUTO 13005KT 10SM -RA OVC030 11/10 A2966 RMK AO2
Loading
Personal Weather Stations






























Interactive Weather Map New forecast layout! Learn more

10-Day Weather Forecast

Advertisements
Track Severe Weather on mobile